Comer, Georgia
Current Conditions -  °F | °C
As of 12:51 AM on Friday 28 Nov 2014 (Local Time) from KAHN Reporting Station
Clear Clear  
Wind Chill: -4°   Ceiling: Unl
Heat Index:   Visibility: 10mi
Dew Point: -4°   Wind: 13mph
Humidity: 70%   Direction: 310°NW
Pressure: 30.33"   Gusts: NA
Location:  34.06°N, 83.13°W
Report Text: KAHN 280551Z AUTO 31011KT 10SM CLR 01/M04 A3033 RMK AO2 SLP277 T00111039 10044 20011 50002
Loading
Personal Weather Stations






























Interactive Weather Map New forecast layout! Learn more

10-Day Weather Forecast

Advertisements
Track Severe Weather on mobile